Manchester, South Dakota
Current Conditions -  °F | °C
As of 11:55 PM on Saturday 22 Nov 2014 (Local Time) from KHON Reporting Station
Overcast Overcast  
Wind Chill: 36°   Ceiling: 10000
Heat Index: 40°   Visibility: 10mi
Dew Point: 31°   Wind: 6mph
Humidity: 70%   Direction: 160°SSE
Pressure: 29.43"   Gusts: NA
Location:  44.3062°N, 97.8068°W
Report Text: KHON 230555Z AUTO 16005KT 10SM BKN100 OVC120 04/M01 A2943 RMK AO2 SLP974 T00441006 10044 20022 400611061 53005
Loading
Personal Weather Stations






























Interactive Weather Map New forecast layout! Learn more

10-Day Weather Forecast

Advertisements
Track Severe Weather on mobile